Time;durP1;ratioP1;P1;durP2;ratioP2;P2;SDS_P1;SDS_P2;PMS_P1;PMS_P2;Temp;Humidity;BMP_temperature;BMP_pressure;BME280_temperature;BME280_humidity;BME280_pressure;Samples;Min_cycle;Max_cycle;Signal;HPM_P1;HPM_P2
2023/10/03 00:01:29;;;;;;;41.40;17.37;;;19.20;72.40;;;;;;4987812;28;20759;-73
2023/10/03 00:03:55;;;;;;;46.10;18.80;;;19.20;72.40;;;;;;4992528;28;20429;-74
2023/10/03 00:06:20;;;;;;;45.30;17.40;;;19.30;72.40;;;;;;4988485;28;20215;-72
2023/10/03 00:08:46;;;;;;;44.47;16.80;;;19.40;71.80;;;;;;4990638;28;20210;-74
2023/10/03 00:11:18;;;;;;;44.47;17.17;;;19.40;72.00;;;;;;4985480;28;20676;-74
2023/10/03 00:13:44;;;;;;;41.93;17.20;;;19.40;71.80;;;;;;4988757;28;20212;-74
2023/10/03 00:16:10;;;;;;;39.80;17.50;;;19.40;71.70;;;;;;4986090;28;20556;-75
2023/10/03 00:18:35;;;;;;;37.50;16.20;;;19.40;71.70;;;;;;4993190;28;20237;-73
2023/10/03 00:21:01;;;;;;;36.13;16.50;;;19.30;72.00;;;;;;4992037;28;20594;-74
2023/10/03 00:23:27;;;;;;;36.97;15.47;;;19.40;71.70;;;;;;4993286;28;20585;-73
2023/10/03 00:25:59;;;;;;;38.13;15.60;;;19.40;71.80;;;;;;4986216;28;20290;-73
2023/10/03 00:28:29;;;;;;;36.73;16.40;;;19.40;71.60;;;;;;4993072;28;20440;-72
2023/10/03 00:30:55;;;;;;;42.10;16.37;;;19.40;71.80;;;;;;4994806;28;20461;-73
2023/10/03 00:33:23;;;;;;;43.90;17.77;;;19.40;71.80;;;;;;4997032;28;20475;-74
2023/10/03 00:35:50;;;;;;;40.07;17.70;;;19.40;71.80;;;;;;4986831;28;20207;-74
2023/10/03 00:38:15;;;;;;;39.40;15.83;;;19.30;72.40;;;;;;4994259;28;20418;-74
2023/10/03 00:40:48;;;;;;;40.60;15.97;;;19.40;72.10;;;;;;4990563;28;20411;-72
2023/10/03 00:43:14;;;;;;;35.87;15.57;;;19.40;71.80;;;;;;4993856;28;20191;-73
2023/10/03 00:45:39;;;;;;;39.60;15.20;;;19.40;72.00;;;;;;4990597;28;20536;-73
2023/10/03 00:48:08;;;;;;;37.73;14.13;;;19.40;72.00;;;;;;4992032;28;20189;-72
2023/10/03 00:50:35;;;;;;;39.73;15.70;;;19.40;72.10;;;;;;4985620;28;20215;-73
2023/10/03 00:53:08;;;;;;;37.90;16.30;;;19.40;72.10;;;;;;4992381;28;20426;-73
2023/10/03 00:55:38;;;;;;;31.13;15.33;;;19.40;72.30;;;;;;4989054;28;20457;-73
2023/10/03 01:00:42;;;;;;;38.80;14.90;;;19.40;72.10;;;;;;4988085;28;20961;-73
2023/10/03 01:03:28;;;;;;;35.60;14.63;;;19.40;72.10;;;;;;4983038;28;20426;-72
2023/10/03 01:05:58;;;;;;;45.13;16.37;;;19.40;72.30;;;;;;4989112;28;20483;-73
2023/10/03 01:08:24;;;;;;;33.47;16.30;;;19.30;72.40;;;;;;4992386;28;20602;-73
2023/10/03 01:10:55;;;;;;;46.57;15.23;;;19.30;72.40;;;;;;4991985;28;20487;-71
2023/10/03 01:13:21;;;;;;;38.83;15.97;;;19.40;72.40;;;;;;4991590;28;20422;-73
2023/10/03 01:15:51;;;;;;;40.03;14.97;;;19.40;72.10;;;;;;4991109;28;20800;-72
2023/10/03 01:18:20;;;;;;;36.60;16.13;;;19.50;72.00;;;;;;4990877;28;20214;-74
2023/10/03 01:20:55;;;;;;;32.57;13.97;;;19.50;72.00;;;;;;4988311;28;20949;-72
2023/10/03 01:23:21;;;;;;;31.97;14.20;;;19.40;72.10;;;;;;4984603;28;20422;-74
2023/10/03 01:25:48;;;;;;;40.10;15.60;;;19.40;72.10;;;;;;4987306;28;20478;-74
2023/10/03 01:28:14;;;;;;;35.03;16.10;;;19.40;72.10;;;;;;4985298;28;20460;-74
2023/10/03 01:30:40;;;;;;;32.30;14.40;;;19.40;72.30;;;;;;4990283;28;20450;-74
2023/10/03 01:33:07;;;;;;;38.10;16.47;;;19.30;72.40;;;;;;4990482;28;20209;-73
2023/10/03 01:35:33;;;;;;;36.30;15.00;;;19.30;72.40;;;;;;4987258;28;20476;-74
2023/10/03 01:37:59;;;;;;;35.80;13.83;;;19.20;73.00;;;;;;4995516;28;20453;-73
2023/10/03 01:40:26;;;;;;;32.63;14.10;;;19.20;73.00;;;;;;4991834;28;20189;-74
2023/10/03 01:42:52;;;;;;;34.37;14.10;;;19.10;73.30;;;;;;4986408;28;20234;-74
2023/10/03 01:45:21;;;;;;;33.70;14.87;;;19.10;73.50;;;;;;4986185;28;22403;-74
2023/10/03 01:47:50;;;;;;;37.50;15.87;;;19.00;73.60;;;;;;4991308;28;20524;-74
2023/10/03 01:50:19;;;;;;;36.60;14.93;;;19.00;73.70;;;;;;4984302;28;20439;-74
2023/10/03 01:52:49;;;;;;;33.60;14.20;;;19.00;73.70;;;;;;4988380;28;20465;-73
2023/10/03 01:55:19;;;;;;;37.50;15.87;;;19.00;73.70;;;;;;4980679;28;20457;-75
2023/10/03 01:57:45;;;;;;;35.43;15.20;;;18.90;73.70;;;;;;4987662;28;20821;-74
2023/10/03 02:00:25;;;;;;;36.97;13.97;;;18.90;73.90;;;;;;4990509;28;20425;-75
2023/10/03 02:03:03;;;;;;;29.87;12.90;;;18.90;73.70;;;;;;4988551;28;20480;-74
2023/10/03 02:05:29;;;;;;;34.43;15.10;;;18.90;74.00;;;;;;4979636;28;20858;-75
2023/10/03 02:07:55;;;;;;;31.43;14.60;;;18.80;73.90;;;;;;4988592;28;20435;-75
2023/10/03 02:10:22;;;;;;;39.30;16.30;;;18.90;73.90;;;;;;4990300;28;20190;-74
2023/10/03 02:12:48;;;;;;;36.50;14.97;;;18.80;73.90;;;;;;4985652;28;20841;-73
2023/10/03 02:15:23;;;;;;;38.80;14.47;;;18.80;74.00;;;;;;4983319;28;20481;-73
2023/10/03 02:17:51;;;;;;;33.90;15.80;;;18.80;74.00;;;;;;4986079;28;20942;-73
2023/10/03 02:20:20;;;;;;;41.30;15.17;;;18.80;73.90;;;;;;4986531;28;20802;-75
2023/10/03 02:22:53;;;;;;;34.17;15.40;;;18.70;74.20;;;;;;4989325;28;20529;-73
2023/10/03 02:25:30;;;;;;;37.80;15.93;;;18.80;74.00;;;;;;4984245;28;20483;-73
2023/10/03 02:27:56;;;;;;;32.30;15.30;;;18.80;74.20;;;;;;4987685;28;20424;-73
2023/10/03 02:30:25;;;;;;;36.13;15.60;;;18.70;74.00;;;;;;4987715;28;20433;-74
2023/10/03 02:32:56;;;;;;;40.37;15.30;;;18.60;74.20;;;;;;4985618;28;20471;-73
2023/10/03 02:35:24;;;;;;;33.17;15.23;;;18.60;74.50;;;;;;4981050;28;20465;-71
2023/10/03 02:37:58;;;;;;;36.90;16.40;;;18.60;74.60;;;;;;4989352;28;20518;-73
2023/10/03 02:40:28;;;;;;;39.97;18.43;;;18.60;74.60;;;;;;4986306;28;20439;-73
2023/10/03 02:42:54;;;;;;;38.80;17.10;;;18.50;74.30;;;;;;4989931;28;20527;-73
2023/10/03 02:45:25;;;;;;;44.73;17.13;;;18.30;74.60;;;;;;4987180;28;20480;-73
2023/10/03 02:47:56;;;;;;;43.33;17.57;;;18.30;74.80;;;;;;4991818;28;20425;-72
2023/10/03 02:50:26;;;;;;;42.83;16.40;;;18.10;75.10;;;;;;4987013;28;20418;-73
2023/10/03 02:52:56;;;;;;;37.23;17.23;;;18.10;75.50;;;;;;4989849;28;20434;-73
2023/10/03 02:55:22;;;;;;;32.00;15.30;;;18.00;75.80;;;;;;4981784;28;21048;-74
2023/10/03 02:57:48;;;;;;;40.43;18.03;;;18.00;75.80;;;;;;4989856;28;20431;-72
2023/10/03 03:00:15;;;;;;;45.80;17.93;;;17.90;75.50;;;;;;4990720;28;20433;-73
2023/10/03 03:02:48;;;;;;;37.20;16.20;;;17.90;75.70;;;;;;4990604;28;20452;-72
2023/10/03 03:05:17;;;;;;;41.97;17.23;;;17.80;75.90;;;;;;4984932;28;20464;-75
2023/10/03 03:07:47;;;;;;;47.93;18.13;;;17.90;76.10;;;;;;4989813;28;20435;-74
2023/10/03 03:10:21;;;;;;;37.90;15.80;;;17.80;75.90;;;;;;4988081;28;20431;-73
2023/10/03 03:12:47;;;;;;;38.00;17.07;;;17.80;75.90;;;;;;4986685;28;21333;-73
2023/10/03 03:15:28;;;;;;;37.73;16.73;;;17.90;75.80;;;;;;4987026;28;20470;-72
2023/10/03 03:17:53;;;;;;;34.50;16.30;;;17.90;75.70;;;;;;4989090;28;20435;-73
2023/10/03 03:20:24;;;;;;;41.70;18.20;;;17.90;75.40;;;;;;4990394;28;20515;-73
2023/10/03 03:22:50;;;;;;;35.83;14.53;;;17.90;75.20;;;;;;4988635;28;20959;-72
2023/10/03 03:25:24;;;;;;;42.33;17.43;;;17.90;75.80;;;;;;4987857;28;20499;-72
2023/10/03 03:27:54;;;;;;;40.60;17.33;;;17.90;75.40;;;;;;4990941;28;20503;-71
2023/10/03 03:30:33;;;;;;;45.37;18.17;;;17.80;75.50;;;;;;4987863;28;20469;-72
2023/10/03 03:32:59;;;;;;;39.67;16.83;;;17.90;75.50;;;;;;4986306;28;20504;-74
2023/10/03 03:35:25;;;;;;;38.30;14.93;;;17.90;74.90;;;;;;4987609;28;20457;-73
2023/10/03 03:37:56;;;;;;;45.83;16.50;;;18.00;74.60;;;;;;4984512;28;20510;-72
2023/10/03 03:40:36;;;;;;;37.10;15.63;;;18.10;74.20;;;;;;4989320;28;20510;-73
2023/10/03 03:43:06;;;;;;;33.60;14.33;;;18.10;74.00;;;;;;4992291;28;20850;-72
2023/10/03 03:45:32;;;;;;;39.40;15.37;;;18.10;73.70;;;;;;4986432;28;20498;-73
2023/10/03 03:47:57;;;;;;;35.33;14.50;;;18.20;73.00;;;;;;4992026;28;20431;-73
2023/10/03 03:50:27;;;;;;;36.27;15.10;;;18.30;72.60;;;;;;4994605;28;20216;-73
2023/10/03 03:52:54;;;;;;;34.97;15.90;;;18.40;72.60;;;;;;4993701;28;20678;-72
2023/10/03 03:55:20;;;;;;;39.23;16.70;;;18.40;72.40;;;;;;4991860;28;20468;-72
2023/10/03 03:57:46;;;;;;;34.63;15.70;;;18.30;72.70;;;;;;4991635;28;20434;-74
2023/10/03 04:00:15;;;;;;;35.97;15.10;;;18.20;73.20;;;;;;4993197;28;20422;-73
2023/10/03 04:02:40;;;;;;;38.80;16.43;;;18.30;72.90;;;;;;4995431;28;20271;-74
2023/10/03 04:05:07;;;;;;;42.63;15.10;;;18.30;73.00;;;;;;4990847;28;20472;-74
2023/10/03 04:07:38;;;;;;;41.33;15.00;;;18.30;72.90;;;;;;4994211;28;20189;-73
2023/10/03 04:10:06;;;;;;;28.73;13.20;;;18.40;72.60;;;;;;4993277;28;20422;-74
2023/10/03 04:12:39;;;;;;;35.83;14.77;;;18.30;72.60;;;;;;4993947;28;20539;-74
2023/10/03 04:15:06;;;;;;;34.07;14.67;;;18.30;72.70;;;;;;4989736;28;20494;-74
2023/10/03 04:17:33;;;;;;;32.40;14.93;;;18.30;72.70;;;;;;4990412;28;20433;-74
2023/10/03 04:19:59;;;;;;;31.70;15.57;;;18.30;72.70;;;;;;4993749;28;20434;-74
2023/10/03 04:22:30;;;;;;;32.70;14.70;;;18.30;72.60;;;;;;4993621;28;20793;-72
2023/10/03 04:24:56;;;;;;;36.20;14.90;;;18.40;71.30;;;;;;4989065;28;20854;-73
2023/10/03 04:27:25;;;;;;;39.40;14.40;;;18.40;71.80;;;;;;4990247;28;20471;-73
2023/10/03 04:29:52;;;;;;;32.67;13.20;;;18.40;71.30;;;;;;4992287;28;20706;-74
2023/10/03 04:32:17;;;;;;;39.43;14.13;;;18.40;70.20;;;;;;4991062;28;20805;-75
2023/10/03 04:34:43;;;;;;;25.10;10.50;;;18.50;69.90;;;;;;4991141;28;20425;-72
2023/10/03 04:37:10;;;;;;;27.67;12.20;;;18.70;68.80;;;;;;4987461;28;20328;-73
2023/10/03 04:39:35;;;;;;;24.23;10.30;;;19.00;67.60;;;;;;4991366;28;20193;-72
2023/10/03 04:42:01;;;;;;;28.97;13.03;;;19.10;66.70;;;;;;4988887;28;20414;-73
2023/10/03 04:44:26;;;;;;;31.13;12.83;;;19.20;67.20;;;;;;4992432;28;20186;-73
2023/10/03 04:46:52;;;;;;;29.90;13.20;;;19.20;67.20;;;;;;4987937;28;20260;-75
2023/10/03 04:49:17;;;;;;;21.77;10.57;;;19.20;66.10;;;;;;4994764;28;20189;-75
2023/10/03 04:51:47;;;;;;;22.30;11.90;;;19.30;65.60;;;;;;4991684;28;20602;-74
2023/10/03 04:54:13;;;;;;;21.73;9.90;;;19.60;64.50;;;;;;4993287;28;20215;-73
2023/10/03 04:56:38;;;;;;;18.43;9.30;;;19.80;64.20;;;;;;4991136;28;20646;-74
2023/10/03 04:59:04;;;;;;;18.30;9.17;;;20.10;62.50;;;;;;4995334;28;20191;-73
2023/10/03 05:01:29;;;;;;;17.80;9.13;;;20.50;61.90;;;;;;4989657;28;20642;-72
2023/10/03 05:03:55;;;;;;;21.37;8.90;;;20.80;62.30;;;;;;4991947;28;20215;-73
2023/10/03 05:06:21;;;;;;;18.20;8.50;;;21.10;61.60;;;;;;4979698;28;20256;-74
2023/10/03 05:08:47;;;;;;;19.57;8.23;;;21.30;61.30;;;;;;4990637;28;20679;-74
2023/10/03 05:11:13;;;;;;;17.43;8.37;;;21.50;60.70;;;;;;4985209;28;20195;-73
2023/10/03 05:13:43;;;;;;;20.57;8.33;;;21.50;60.40;;;;;;4989894;28;20192;-72
2023/10/03 05:16:09;;;;;;;21.10;8.77;;;21.60;60.30;;;;;;4983067;28;20997;-72
2023/10/03 05:18:34;;;;;;;14.77;8.00;;;21.70;60.10;;;;;;4990568;28;20445;-73
2023/10/03 05:21:00;;;;;;;23.33;9.13;;;21.70;60.30;;;;;;4991911;28;20791;-72
2023/10/03 05:23:25;;;;;;;12.47;7.33;;;21.80;60.10;;;;;;4991851;28;20281;-73
2023/10/03 05:25:51;;;;;;;15.40;8.60;;;21.80;60.10;;;;;;4985375;28;20256;-72
2023/10/03 05:28:17;;;;;;;17.63;8.37;;;21.70;60.30;;;;;;4988323;28;20186;-73
2023/10/03 05:30:42;;;;;;;16.50;7.80;;;21.70;60.40;;;;;;4991199;28;20185;-71
2023/10/03 05:33:08;;;;;;;17.93;8.33;;;21.70;60.40;;;;;;4992217;28;20281;-73
2023/10/03 05:35:34;;;;;;;17.43;8.23;;;21.60;60.70;;;;;;4988285;28;20209;-73
2023/10/03 05:38:00;;;;;;;15.30;8.37;;;21.60;60.70;;;;;;4992343;28;20289;-73
2023/10/03 05:40:26;;;;;;;19.80;8.10;;;21.60;60.70;;;;;;4991658;28;20785;-73
2023/10/03 05:42:52;;;;;;;16.47;9.07;;;21.50;60.70;;;;;;4994625;28;20261;-71
2023/10/03 05:45:19;;;;;;;16.17;8.63;;;21.60;60.60;;;;;;4990067;28;20464;-71
2023/10/03 05:47:48;;;;;;;13.57;7.10;;;21.60;60.60;;;;;;4997442;28;20183;-71
2023/10/03 05:50:16;;;;;;;23.73;9.20;;;21.60;60.40;;;;;;4997657;28;20451;-72
2023/10/03 05:52:45;;;;;;;16.40;9.00;;;21.60;60.90;;;;;;4989271;28;20448;-73
2023/10/03 05:55:12;;;;;;;15.30;7.43;;;21.50;61.00;;;;;;4984983;28;20455;-73
2023/10/03 05:57:40;;;;;;;16.13;7.13;;;21.50;60.90;;;;;;4985438;28;20506;-75
2023/10/03 06:00:09;;;;;;;15.57;7.70;;;21.50;60.90;;;;;;4983329;28;20435;-74
2023/10/03 06:02:43;;;;;;;13.90;7.57;;;21.40;61.00;;;;;;4982997;28;20459;-75
2023/10/03 06:05:09;;;;;;;22.63;8.53;;;21.40;61.00;;;;;;4980444;28;20540;-74
2023/10/03 06:07:38;;;;;;;20.40;8.17;;;21.40;60.90;;;;;;4986115;28;20521;-72
2023/10/03 06:10:04;;;;;;;14.27;7.93;;;21.50;60.70;;;;;;4990951;28;20197;-74
2023/10/03 06:12:31;;;;;;;17.80;7.33;;;21.50;60.70;;;;;;4990863;28;20429;-73
2023/10/03 06:14:56;;;;;;;18.33;7.87;;;21.50;60.70;;;;;;4989556;28;20428;-73
2023/10/03 06:17:22;;;;;;;13.57;7.57;;;21.60;60.60;;;;;;4991832;28;20428;-75
2023/10/03 06:19:47;;;;;;;15.63;8.27;;;21.60;60.60;;;;;;4990582;28;20676;-73
2023/10/03 06:22:13;;;;;;;14.30;7.13;;;21.60;60.70;;;;;;4989430;28;20266;-73
2023/10/03 06:24:39;;;;;;;16.50;7.10;;;21.60;60.60;;;;;;4995978;28;20182;-71
2023/10/03 06:27:08;;;;;;;15.87;7.37;;;21.60;60.40;;;;;;4984791;28;20732;-72
2023/10/03 06:29:34;;;;;;;16.00;7.70;;;21.60;60.40;;;;;;4989570;28;20845;-73
2023/10/03 06:32:00;;;;;;;17.93;7.90;;;21.70;60.30;;;;;;4989504;28;20928;-76
2023/10/03 06:34:26;;;;;;;17.70;8.13;;;21.70;60.00;;;;;;4990930;28;20445;-71
2023/10/03 06:36:52;;;;;;;15.60;8.50;;;21.70;60.10;;;;;;4982208;28;20551;-74
2023/10/03 06:39:18;;;;;;;15.60;7.07;;;21.80;60.00;;;;;;4986758;28;20197;-73
2023/10/03 06:41:44;;;;;;;17.53;7.47;;;21.70;60.00;;;;;;4985222;28;20420;-72
2023/10/03 06:44:10;;;;;;;11.40;6.53;;;21.90;59.60;;;;;;4986332;28;20276;-73
2023/10/03 06:46:37;;;;;;;17.70;8.23;;;21.90;59.60;;;;;;4987035;28;20251;-73
2023/10/03 06:49:03;;;;;;;16.63;9.60;;;22.00;59.50;;;;;;4983659;28;20211;-73
2023/10/03 06:51:29;;;;;;;16.00;8.07;;;22.00;59.30;;;;;;4989067;28;20452;-72
2023/10/03 06:53:54;;;;;;;17.23;8.37;;;22.00;59.30;;;;;;4986073;28;21105;-72
2023/10/03 06:56:20;;;;;;;15.07;7.50;;;22.10;59.10;;;;;;4985878;28;20578;-73
2023/10/03 06:58:46;;;;;;;15.10;7.80;;;22.20;58.80;;;;;;4982243;28;20793;-73
2023/10/03 07:01:12;;;;;;;15.00;8.13;;;22.30;58.70;;;;;;4987743;28;20190;-72
2023/10/03 07:03:40;;;;;;;14.30;7.03;;;22.40;58.50;;;;;;4986911;28;20516;-73
2023/10/03 07:06:07;;;;;;;14.60;7.23;;;22.50;58.00;;;;;;4988908;28;20234;-71
2023/10/03 07:08:37;;;;;;;13.67;7.13;;;22.60;57.80;;;;;;4989352;28;20440;-74
2023/10/03 07:11:02;;;;;;;14.10;6.73;;;22.70;58.00;;;;;;4983795;28;20756;-72
2023/10/03 07:13:29;;;;;;;15.10;7.40;;;22.70;58.10;;;;;;4985098;28;20910;-73
2023/10/03 07:15:58;;;;;;;19.87;7.20;;;22.70;58.50;;;;;;4982285;28;20651;-73
2023/10/03 07:18:23;;;;;;;13.43;7.20;;;22.70;58.20;;;;;;4989011;28;20859;-72
2023/10/03 07:20:50;;;;;;;16.80;7.00;;;22.70;58.20;;;;;;4987840;28;21124;-72
2023/10/03 07:23:15;;;;;;;14.40;8.53;;;22.70;58.20;;;;;;4991000;28;20189;-75
2023/10/03 07:25:41;;;;;;;22.20;8.67;;;22.80;58.40;;;;;;4980162;28;20489;-73
2023/10/03 07:28:07;;;;;;;15.10;7.40;;;22.70;58.40;;;;;;4993722;28;20184;-74
2023/10/03 07:30:33;;;;;;;11.50;7.30;;;22.70;58.70;;;;;;4988487;28;20672;-72
2023/10/03 07:32:59;;;;;;;18.97;7.40;;;22.70;58.80;;;;;;4993224;28;20440;-73
2023/10/03 07:35:25;;;;;;;14.47;7.30;;;22.70;58.70;;;;;;4988537;28;20263;-72
2023/10/03 07:37:53;;;;;;;14.57;7.87;;;22.80;58.50;;;;;;4993905;28;20189;-72
2023/10/03 07:40:22;;;;;;;20.10;7.90;;;22.80;58.50;;;;;;4990750;28;20426;-74
2023/10/03 07:42:49;;;;;;;15.37;6.67;;;22.90;58.50;;;;;;4991714;28;20426;-72
2023/10/03 07:45:15;;;;;;;16.40;7.57;;;22.90;58.40;;;;;;4988248;28;20465;-73
2023/10/03 07:47:41;;;;;;;13.20;6.30;;;23.00;58.40;;;;;;4993512;28;20421;-72
2023/10/03 07:50:08;;;;;;;13.03;6.63;;;23.00;58.20;;;;;;4991612;28;20217;-74
2023/10/03 07:52:34;;;;;;;17.17;8.07;;;23.00;58.40;;;;;;4991059;28;20427;-71
2023/10/03 07:55:00;;;;;;;14.10;7.77;;;23.10;58.20;;;;;;4986109;28;20802;-72
2023/10/03 07:57:26;;;;;;;17.20;6.80;;;23.20;58.20;;;;;;4986335;28;20435;-72
2023/10/03 07:59:52;;;;;;;13.37;7.13;;;23.30;57.60;;;;;;4992555;28;20520;-72
2023/10/03 08:02:18;;;;;;;14.40;7.00;;;23.30;57.70;;;;;;4993997;28;20575;-73
2023/10/03 08:04:46;;;;;;;12.47;7.10;;;23.50;57.70;;;;;;4993897;28;20428;-73
2023/10/03 08:07:21;;;;;;;12.17;6.60;;;23.50;57.40;;;;;;4991033;28;20568;-71
2023/10/03 08:09:48;;;;;;;13.07;7.00;;;23.60;57.40;;;;;;4990595;28;20423;-73
2023/10/03 08:12:14;;;;;;;12.77;6.67;;;23.70;57.20;;;;;;4995802;28;20418;-73
2023/10/03 08:14:40;;;;;;;12.13;7.00;;;23.80;56.50;;;;;;4990724;28;20431;-73
2023/10/03 08:17:06;;;;;;;19.27;9.60;;;23.90;56.50;;;;;;4996651;28;20215;-72
2023/10/03 08:19:32;;;;;;;14.10;6.80;;;23.90;56.40;;;;;;4985008;28;21018;-72
2023/10/03 08:21:58;;;;;;;13.10;7.10;;;24.10;56.10;;;;;;4990809;28;20461;-71
2023/10/03 08:24:25;;;;;;;18.00;6.77;;;24.30;55.70;;;;;;4989979;28;20203;-74
2023/10/03 08:26:58;;;;;;;11.30;5.80;;;24.40;55.30;;;;;;4988047;28;20812;-74
2023/10/03 08:29:25;;;;;;;14.73;6.00;;;24.50;55.20;;;;;;4982298;28;20432;-73
2023/10/03 08:31:58;;;;;;;9.70;6.00;;;24.70;55.00;;;;;;4989946;28;20431;-71
2023/10/03 08:34:28;;;;;;;11.60;5.97;;;24.80;54.80;;;;;;4989293;28;20442;-72
2023/10/03 08:36:59;;;;;;;14.50;6.50;;;24.90;54.90;;;;;;4985447;28;20457;-71
2023/10/03 08:39:26;;;;;;;12.60;6.77;;;25.00;54.80;;;;;;4987032;28;20419;-73
2023/10/03 08:42:15;;;;;;;11.57;6.10;;;25.00;54.90;;;;;;4986943;28;20426;-72
2023/10/03 08:44:51;;;;;;;16.57;6.03;;;25.20;54.50;;;;;;4988028;28;20420;-73
2023/10/03 08:47:28;;;;;;;20.47;6.40;;;25.30;54.50;;;;;;4984251;28;20489;-73
2023/10/03 08:49:58;;;;;;;12.83;5.93;;;25.30;54.40;;;;;;4985211;28;20431;-73
2023/10/03 08:52:39;;;;;;;10.67;6.00;;;25.30;54.50;;;;;;4991419;28;20415;-72
2023/10/03 08:55:08;;;;;;;13.77;6.10;;;25.40;54.50;;;;;;4982030;28;20447;-73
2023/10/03 08:57:35;;;;;;;12.70;6.47;;;25.40;54.50;;;;;;4988880;28;20443;-72
2023/10/03 09:00:03;;;;;;;12.10;6.77;;;25.40;54.50;;;;;;4985395;28;20463;-73
2023/10/03 09:02:30;;;;;;;9.33;6.17;;;25.50;54.60;;;;;;4990719;28;20423;-74
2023/10/03 09:04:57;;;;;;;7.63;5.63;;;25.60;54.50;;;;;;4986776;28;20899;-72
2023/10/03 09:07:23;;;;;;;12.43;6.87;;;25.70;54.40;;;;;;4987770;28;20538;-73
2023/10/03 09:09:50;;;;;;;15.83;7.03;;;25.70;54.20;;;;;;4987373;28;20463;-72
2023/10/03 09:12:20;;;;;;;14.70;6.17;;;25.70;54.40;;;;;;4990970;28;20428;-73
2023/10/03 09:14:53;;;;;;;9.50;5.97;;;25.70;54.40;;;;;;4989059;28;20432;-72
2023/10/03 09:17:22;;;;;;;10.40;6.07;;;25.70;54.50;;;;;;4989002;28;20412;-74
2023/10/03 09:19:50;;;;;;;12.47;6.20;;;25.80;54.50;;;;;;4988190;28;20433;-73
2023/10/03 09:22:37;;;;;;;11.13;6.10;;;25.90;54.40;;;;;;4988349;28;20452;-74
2023/10/03 09:25:07;;;;;;;10.37;5.97;;;26.00;54.40;;;;;;4988719;28;20459;-72
2023/10/03 09:27:32;;;;;;;11.10;6.30;;;26.00;54.40;;;;;;4987204;28;21141;-73
2023/10/03 09:30:08;;;;;;;14.07;6.90;;;26.00;54.40;;;;;;4990672;28;20436;-71
2023/10/03 09:32:39;;;;;;;9.63;5.93;;;25.90;54.80;;;;;;4983325;28;20256;-73
2023/10/03 09:35:09;;;;;;;10.30;5.80;;;25.90;54.60;;;;;;4989471;28;20583;-72
2023/10/03 09:37:36;;;;;;;10.80;6.27;;;26.10;54.40;;;;;;4989021;28;20444;-72
2023/10/03 09:40:16;;;;;;;11.77;5.87;;;26.20;54.20;;;;;;4993822;28;20452;-74
2023/10/03 09:42:48;;;;;;;10.73;6.10;;;26.20;54.50;;;;;;4995298;28;20428;-73
2023/10/03 09:45:24;;;;;;;13.03;6.57;;;26.30;54.40;;;;;;4990778;28;20507;-72
2023/10/03 09:47:58;;;;;;;11.47;6.67;;;26.30;54.20;;;;;;4989391;28;20439;-72
2023/10/03 09:50:28;;;;;;;11.63;6.50;;;26.30;54.50;;;;;;4985774;28;20416;-73
2023/10/03 09:52:56;;;;;;;12.03;6.70;;;26.50;54.40;;;;;;4988136;28;20438;-73
2023/10/03 09:55:46;;;;;;;14.57;6.90;;;26.70;54.00;;;;;;4978064;28;20457;-72
2023/10/03 09:58:13;;;;;;;12.00;6.57;;;26.90;53.80;;;;;;4983370;28;20429;-74
2023/10/03 10:00:50;;;;;;;10.07;5.77;;;27.10;53.70;;;;;;4988225;28;20754;-73
2023/10/03 10:03:25;;;;;;;10.47;6.13;;;27.20;53.20;;;;;;4983319;28;20421;-72
2023/10/03 10:06:12;;;;;;;12.20;6.20;;;27.40;52.90;;;;;;4986480;28;20477;-74
2023/10/03 10:08:41;;;;;;;9.77;6.50;;;27.30;52.80;;;;;;4982741;28;20532;-74
2023/10/03 10:11:07;;;;;;;10.57;6.33;;;27.20;53.20;;;;;;4989199;28;20490;-74
2023/10/03 10:13:41;;;;;;;12.17;6.50;;;27.30;53.20;;;;;;4989178;28;20433;-73
2023/10/03 10:16:22;;;;;;;11.90;5.80;;;27.40;52.90;;;;;;4983952;28;20582;-74
2023/10/03 10:18:51;;;;;;;12.10;7.37;;;27.40;52.80;;;;;;4988966;28;20428;-75
2023/10/03 10:21:31;;;;;;;13.37;6.53;;;27.40;52.80;;;;;;4989064;28;21030;-72
2023/10/03 10:24:24;;;;;;;12.40;6.73;;;27.40;53.30;;;;;;4987567;28;20429;-71
2023/10/03 10:26:59;;;;;;;11.23;6.37;;;27.40;53.30;;;;;;4975331;28;20516;-73
2023/10/03 10:29:25;;;;;;;9.67;5.90;;;27.40;53.30;;;;;;4988937;28;20913;-71
2023/10/03 10:31:57;;;;;;;9.90;5.73;;;27.40;52.90;;;;;;4988317;28;20459;-73
2023/10/03 10:34:40;;;;;;;14.03;6.53;;;27.30;53.00;;;;;;4989053;28;20986;-75
2023/10/03 10:37:09;;;;;;;11.00;6.13;;;27.30;53.00;;;;;;4984030;28;20922;-74
2023/10/03 10:39:54;;;;;;;8.40;5.00;;;27.20;53.20;;;;;;4984174;28;20945;-73
2023/10/03 10:42:24;;;;;;;11.40;5.50;;;27.30;53.40;;;;;;4987746;28;21269;-75
2023/10/03 10:45:13;;;;;;;10.80;6.23;;;27.30;53.30;;;;;;4987050;28;20440;-74
2023/10/03 10:47:50;;;;;;;9.40;5.90;;;27.40;53.30;;;;;;4991356;28;20476;-73
2023/10/03 10:50:25;;;;;;;11.60;6.93;;;27.40;53.60;;;;;;4986971;28;20433;-74
2023/10/03 10:52:53;;;;;;;11.10;6.20;;;27.30;54.00;;;;;;4988551;28;20549;-75
2023/10/03 10:55:23;;;;;;;18.33;6.77;;;27.50;53.70;;;;;;4989292;28;20906;-75
2023/10/03 10:58:12;;;;;;;8.73;5.87;;;27.60;53.30;;;;;;4992165;28;20464;-73
2023/10/03 11:00:38;;;;;;;12.70;6.73;;;27.60;53.30;;;;;;4988780;28;20948;-72
2023/10/03 11:03:05;;;;;;;11.00;5.97;;;27.70;53.20;;;;;;4991818;28;20426;-74
2023/10/03 11:05:48;;;;;;;9.90;6.00;;;27.90;53.00;;;;;;4986172;28;20461;-75
2023/10/03 11:08:14;;;;;;;10.57;6.73;;;28.40;52.10;;;;;;4992643;28;20457;-73
2023/10/03 11:10:53;;;;;;;13.07;6.43;;;28.80;51.30;;;;;;4993842;28;20413;-73
2023/10/03 11:13:20;;;;;;;11.30;6.90;;;28.80;51.30;;;;;;4985874;28;20413;-75
2023/10/03 11:15:53;;;;;;;9.43;6.40;;;28.70;51.70;;;;;;4991434;28;20970;-73
2023/10/03 11:18:30;;;;;;;11.40;7.20;;;28.50;52.20;;;;;;4985166;28;20487;-74
2023/10/03 11:20:57;;;;;;;12.30;6.13;;;28.60;52.20;;;;;;4990475;28;20898;-74
2023/10/03 11:23:23;;;;;;;13.17;6.33;;;28.30;52.90;;;;;;4993207;28;20500;-74
2023/10/03 11:25:55;;;;;;;11.63;6.90;;;28.10;53.00;;;;;;4986583;28;20541;-74
2023/10/03 11:28:21;;;;;;;13.33;7.13;;;27.90;53.30;;;;;;4992670;28;20368;-74
2023/10/03 11:31:05;;;;;;;16.33;7.40;;;27.80;53.40;;;;;;4989255;28;20494;-74
2023/10/03 11:33:41;;;;;;;11.10;6.47;;;27.50;53.70;;;;;;4990859;28;20206;-74
2023/10/03 11:36:07;;;;;;;14.43;6.80;;;27.60;53.40;;;;;;4987344;28;20465;-75
2023/10/03 11:38:54;;;;;;;9.80;6.60;;;27.50;53.70;;;;;;4990269;28;20493;-75
2023/10/03 11:41:39;;;;;;;12.43;6.83;;;27.40;54.00;;;;;;4988249;28;20244;-76
2023/10/03 11:44:25;;;;;;;10.67;6.47;;;27.50;53.80;;;;;;4987807;28;20512;-75
2023/10/03 11:46:51;;;;;;;12.87;6.93;;;27.50;53.60;;;;;;4988694;28;20547;-74
2023/10/03 11:49:17;;;;;;;11.70;6.73;;;27.50;53.80;;;;;;4987336;28;20426;-75
2023/10/03 11:51:43;;;;;;;12.90;7.60;;;27.60;53.30;;;;;;4990704;28;20190;-73
2023/10/03 11:54:14;;;;;;;16.80;6.60;;;27.60;53.40;;;;;;4987187;28;20237;-74
2023/10/03 11:56:44;;;;;;;12.93;6.60;;;27.70;53.00;;;;;;4986497;28;20477;-74
2023/10/03 11:59:14;;;;;;;11.07;7.03;;;27.80;52.90;;;;;;4990581;28;20426;-72
2023/10/03 12:01:46;;;;;;;14.63;6.20;;;27.90;52.50;;;;;;4993454;28;20452;-74
2023/10/03 12:04:12;;;;;;;12.90;6.60;;;27.80;52.90;;;;;;4994405;28;20822;-73
2023/10/03 12:06:38;;;;;;;12.17;7.07;;;27.70;53.40;;;;;;4992648;28;20497;-73
2023/10/03 12:09:08;;;;;;;16.00;7.20;;;27.70;53.70;;;;;;4995463;28;20429;-74
2023/10/03 12:11:36;;;;;;;14.53;8.20;;;27.80;54.00;;;;;;4995876;28;20436;-74
2023/10/03 12:14:02;;;;;;;11.40;7.00;;;28.00;53.40;;;;;;4995885;28;20422;-73
2023/10/03 12:16:28;;;;;;;12.00;7.27;;;27.90;53.30;;;;;;4991720;28;20488;-74
2023/10/03 12:18:54;;;;;;;13.43;7.00;;;27.80;53.70;;;;;;4990273;28;20442;-73
2023/10/03 12:21:19;;;;;;;11.23;7.60;;;27.80;53.40;;;;;;4992677;28;20432;-74
2023/10/03 12:23:45;;;;;;;10.67;7.17;;;27.80;53.80;;;;;;4991485;28;20197;-73
2023/10/03 12:26:11;;;;;;;12.00;7.00;;;27.80;53.70;;;;;;4990969;28;20222;-73
2023/10/03 12:28:37;;;;;;;11.80;7.17;;;27.40;54.20;;;;;;4993759;28;20677;-73
2023/10/03 12:31:05;;;;;;;13.20;7.00;;;27.40;54.50;;;;;;4991204;28;20425;-74
2023/10/03 12:33:31;;;;;;;13.13;6.93;;;27.30;54.80;;;;;;4994328;28;20714;-73
2023/10/03 12:36:00;;;;;;;10.37;6.80;;;27.30;54.90;;;;;;4987834;28;20496;-73
2023/10/03 12:38:26;;;;;;;12.30;7.70;;;27.40;54.90;;;;;;4994473;28;20217;-74
2023/10/03 12:40:52;;;;;;;10.80;6.63;;;27.30;54.80;;;;;;4993715;28;20425;-74
2023/10/03 12:43:18;;;;;;;10.70;6.83;;;27.10;55.30;;;;;;4994211;28;21003;-74
2023/10/03 12:45:43;;;;;;;11.93;7.80;;;27.00;55.30;;;;;;4991214;28;20212;-74